createdAt,value
2023-05-10T00:00:03.864Z,63.16
2023-05-10T00:03:39.583Z,64.06
2023-05-10T00:07:22.685Z,64.12
2023-05-10T00:11:29.295Z,63.88
2023-05-10T00:15:00.263Z,64.48
2023-05-10T00:23:08.742Z,64.99
2023-05-10T00:31:31.507Z,65.05
2023-05-10T01:19:45.477Z,67.82
2023-05-10T01:24:09.343Z,68.28
2023-05-10T01:28:14.022Z,67.87
2023-05-10T01:31:58.670Z,67.84
2023-05-10T01:35:21.188Z,68.19
2023-05-10T01:39:22.288Z,68.21
2023-05-10T01:42:41.625Z,67.80
2023-05-10T01:46:48.459Z,67.82
2023-05-10T01:50:13.613Z,67.48
2023-05-10T01:53:42.988Z,67.33
2023-05-10T01:57:27.476Z,67.03
2023-05-10T02:01:14.602Z,66.92
2023-05-10T02:04:46.965Z,66.84
2023-05-10T02:08:12.431Z,66.61
2023-05-10T02:11:38.327Z,66.27
2023-05-10T02:14:59.841Z,66.28
2023-05-10T02:22:22.953Z,65.29
2023-05-10T02:26:52.496Z,65.24
2023-05-10T02:39:33.466Z,64.91
2023-05-10T02:51:56.914Z,64.92
2023-05-10T02:55:22.594Z,65.19
2023-05-10T02:58:41.127Z,64.74
2023-05-10T03:02:01.648Z,64.85
2023-05-10T03:05:14.871Z,64.40
2023-05-10T03:08:23.982Z,64.19
2023-05-10T03:12:07.396Z,64.28
2023-05-10T03:15:45.124Z,64.47
2023-05-10T03:19:30.866Z,64.34
2023-05-10T03:22:47.808Z,64.80
2023-05-10T03:26:01.453Z,64.83
2023-05-10T03:29:22.071Z,65.07
2023-05-10T03:32:30.217Z,64.67
2023-05-10T03:35:39.255Z,65.15
2023-05-10T03:38:55.148Z,64.69
2023-05-10T03:42:05.969Z,64.14
2023-05-10T03:45:28.342Z,64.11
2023-05-10T03:48:54.351Z,64.39
2023-05-10T03:52:17.976Z,64.35
2023-05-10T03:55:54.820Z,64.09
2023-05-10T03:59:23.893Z,64.11
2023-05-10T04:02:47.962Z,63.60
2023-05-10T04:06:21.136Z,63.62
2023-05-10T04:09:54.567Z,63.67
2023-05-10T04:13:14.995Z,63.70
2023-05-10T04:16:28.630Z,63.72
2023-05-10T04:19:47.872Z,64.33
2023-05-10T04:23:01.942Z,64.55
2023-05-10T04:26:09.963Z,64.86
2023-05-10T04:29:27.069Z,65.24
2023-05-10T04:32:37.281Z,65.09
2023-05-10T04:35:56.745Z,64.93
2023-05-10T04:39:10.492Z,64.68
2023-05-10T04:42:40.689Z,65.23
2023-05-10T04:46:03.783Z,64.94
2023-05-10T04:49:20.118Z,64.74
2023-05-10T04:52:37.122Z,64.49
2023-05-10T04:55:45.486Z,64.34
2023-05-10T04:59:07.675Z,64.54
2023-05-10T05:02:20.965Z,64.23
2023-05-10T05:05:25.719Z,64.22
2023-05-10T05:08:32.185Z,64.32
2023-05-10T05:11:45.256Z,64.05
2023-05-10T05:15:03.573Z,63.99
2023-05-10T05:18:19.221Z,63.88
2023-05-10T05:21:30.897Z,63.57
2023-05-10T05:24:47.483Z,63.36
2023-05-10T05:27:56.860Z,63.35
2023-05-10T05:31:06.921Z,63.00
2023-05-10T05:34:10.994Z,62.53
2023-05-10T05:37:31.005Z,63.05
2023-05-10T05:40:40.937Z,62.95
2023-05-10T05:43:44.352Z,62.63
2023-05-10T05:46:56.648Z,62.18
2023-05-10T05:50:07.708Z,62.97
2023-05-10T05:53:22.446Z,62.73
2023-05-10T05:57:55.877Z,62.54
2023-05-10T06:01:15.535Z,62.68
2023-05-10T06:28:25.759Z,49.13
2023-05-10T06:57:47.293Z,59.58
2023-05-10T07:38:31.615Z,47.71
2023-05-10T07:41:35.906Z,45.03
2023-05-10T07:44:38.812Z,49.88
2023-05-10T07:47:44.234Z,52.60
2023-05-10T07:50:46.747Z,48.76
2023-05-10T07:53:50.186Z,52.65
2023-05-10T07:56:59.225Z,53.73
2023-05-10T08:00:04.733Z,54.41
2023-05-10T08:03:14.439Z,54.08
2023-05-10T08:06:17.150Z,53.92
2023-05-10T08:09:25.025Z,53.29
2023-05-10T08:12:40.386Z,53.13
2023-05-10T08:15:42.802Z,53.12
2023-05-10T08:18:46.695Z,51.26
2023-05-10T08:21:49.518Z,51.67
2023-05-10T08:25:00.387Z,51.16
2023-05-10T08:28:09.913Z,52.35
2023-05-10T08:31:19.187Z,51.75
2023-05-10T08:34:23.041Z,52.21
2023-05-10T08:37:26.379Z,52.39
2023-05-10T08:40:29.451Z,52.77
2023-05-10T08:43:39.642Z,52.39
2023-05-10T08:46:52.035Z,52.24
2023-05-10T08:49:58.520Z,52.45
2023-05-10T08:53:05.226Z,50.57
2023-05-10T08:56:08.481Z,51.59
2023-05-10T08:59:14.428Z,52.60
2023-05-10T09:02:28.680Z,52.71
2023-05-10T09:05:34.843Z,52.47
2023-05-10T09:08:41.657Z,52.00
2023-05-10T09:11:50.051Z,51.02
2023-05-10T09:14:53.784Z,50.58
2023-05-10T09:17:56.603Z,51.39
2023-05-10T09:20:58.643Z,51.67
2023-05-10T09:24:07.995Z,51.19
2023-05-10T09:27:10.938Z,50.93
2023-05-10T09:30:34.467Z,49.95
2023-05-10T09:33:52.161Z,49.69
2023-05-10T09:37:02.090Z,49.40
2023-05-10T09:40:08.688Z,48.55
2023-05-10T09:43:47.348Z,47.66
2023-05-10T09:47:13.149Z,47.21
2023-05-10T09:50:15.831Z,46.27
2023-05-10T09:53:34.809Z,47.83
2023-05-10T10:34:39.855Z,47.35
2023-05-10T10:50:20.475Z,46.04
2023-05-10T10:52:12.481Z,43.87
2023-05-10T10:55:52.504Z,43.14
2023-05-10T10:59:10.270Z,41.85
2023-05-10T11:02:46.942Z,41.39
2023-05-10T11:05:51.000Z,41.92
2023-05-10T11:09:13.532Z,41.74
2023-05-10T11:12:27.408Z,41.72
2023-05-10T11:15:51.322Z,42.44
2023-05-10T11:19:05.129Z,43.18
2023-05-10T11:22:25.128Z,41.93
2023-05-10T11:25:31.211Z,42.31
2023-05-10T11:28:49.767Z,43.33
2023-05-10T11:32:15.561Z,43.32
2023-05-10T11:35:28.396Z,41.75
2023-05-10T11:38:59.766Z,40.49
2023-05-10T11:42:14.417Z,40.23
2023-05-10T11:45:17.888Z,40.54
2023-05-10T11:48:25.131Z,40.63
2023-05-10T11:51:29.212Z,41.61
2023-05-10T11:54:36.142Z,42.12
2023-05-10T11:57:39.796Z,42.35
2023-05-10T12:00:48.202Z,41.39
2023-05-10T12:03:54.189Z,41.24
2023-05-10T12:06:57.343Z,41.26
2023-05-10T12:10:11.776Z,41.36
2023-05-10T12:13:27.430Z,40.77
2023-05-10T12:21:13.223Z,41.68
2023-05-10T12:24:19.224Z,40.89
2023-05-10T12:27:22.893Z,41.15
2023-05-10T12:30:30.459Z,41.00
2023-05-10T12:33:44.677Z,40.88
2023-05-10T12:36:46.801Z,41.26
2023-05-10T12:39:52.660Z,41.57
2023-05-10T12:42:56.120Z,41.30
2023-05-10T12:45:58.323Z,41.22
2023-05-10T12:49:08.507Z,41.47
2023-05-10T12:52:11.487Z,39.92
2023-05-10T12:55:17.025Z,39.86
2023-05-10T12:58:34.306Z,40.86
2023-05-10T13:01:38.109Z,39.84
2023-05-10T13:04:56.851Z,38.96
2023-05-10T13:07:59.420Z,39.29
2023-05-10T13:11:05.384Z,40.14
2023-05-10T13:14:08.190Z,39.41
2023-05-10T13:17:13.551Z,38.26
2023-05-10T13:20:21.409Z,38.93
2023-05-10T13:23:24.391Z,38.32
2023-05-10T13:26:33.724Z,38.29
2023-05-10T13:29:35.896Z,38.51
2023-05-10T13:32:38.230Z,38.14
2023-05-10T13:35:40.332Z,36.67
2023-05-10T13:38:42.424Z,37.36
2023-05-10T13:41:50.516Z,37.83
2023-05-10T13:44:52.901Z,37.58
2023-05-10T13:47:54.910Z,37.70
2023-05-10T13:50:57.137Z,37.07
2023-05-10T13:53:59.512Z,36.70
2023-05-10T13:57:01.797Z,37.21
2023-05-10T14:00:04.396Z,37.33
2023-05-10T14:03:08.819Z,36.78
2023-05-10T14:06:10.970Z,36.67
2023-05-10T14:09:13.019Z,36.86
2023-05-10T14:12:15.727Z,37.05
2023-05-10T14:15:17.908Z,37.29
2023-05-10T14:18:20.189Z,36.47
2023-05-10T14:21:22.221Z,35.40
2023-05-10T14:24:25.638Z,34.29
2023-05-10T14:27:28.032Z,34.57
2023-05-10T14:30:31.944Z,34.92
2023-05-10T14:33:38.214Z,35.09
2023-05-10T14:40:25.833Z,35.84
2023-05-10T14:44:51.914Z,36.46
2023-05-10T14:48:30.790Z,36.87
2023-05-10T14:55:45.303Z,36.97
2023-05-10T15:07:40.002Z,37.86
2023-05-10T15:10:54.331Z,37.38
2023-05-10T15:14:02.633Z,37.22
2023-05-10T15:20:53.417Z,37.19
2023-05-10T15:27:26.932Z,36.64
2023-05-10T15:34:28.660Z,36.25
2023-05-10T15:37:50.600Z,35.31
2023-05-10T15:41:12.601Z,35.42
2023-05-10T15:44:35.736Z,35.55
2023-05-10T15:47:46.077Z,35.91
2023-05-10T15:51:01.077Z,36.11
2023-05-10T15:54:28.965Z,36.51
2023-05-10T15:57:36.792Z,37.02
2023-05-10T16:00:51.282Z,37.35
2023-05-10T16:03:58.931Z,37.33
2023-05-10T16:07:27.311Z,37.55
2023-05-10T16:10:42.556Z,37.31
2023-05-10T16:14:10.168Z,37.47
2023-05-10T16:17:28.908Z,37.66
2023-05-10T16:21:05.415Z,37.89
2023-05-10T16:24:37.768Z,37.82
2023-05-10T16:31:38.309Z,37.18
2023-05-10T16:35:37.014Z,37.21
2023-05-10T16:39:27.452Z,38.17
2023-05-10T16:43:02.366Z,39.00
2023-05-10T16:55:10.363Z,39.96
2023-05-10T17:02:11.549Z,40.95
2023-05-10T17:05:50.701Z,41.52
2023-05-10T17:09:07.862Z,42.23
2023-05-10T17:12:25.969Z,42.75
2023-05-10T17:16:08.595Z,43.18
2023-05-10T17:19:37.516Z,43.38
2023-05-10T17:23:08.947Z,43.58
2023-05-10T17:26:38.722Z,43.63
2023-05-10T17:30:38.281Z,44.14
2023-05-10T17:46:20.340Z,44.41
2023-05-10T17:49:47.885Z,44.31
2023-05-10T17:53:28.926Z,44.72
2023-05-10T17:56:49.295Z,44.83
2023-05-10T18:00:07.416Z,45.04
2023-05-10T18:03:56.952Z,44.99
2023-05-10T18:07:04.433Z,45.23
2023-05-10T18:10:13.076Z,44.93
2023-05-10T18:13:18.044Z,44.95
2023-05-10T18:16:24.404Z,44.81
2023-05-10T18:19:46.183Z,45.05
2023-05-10T18:22:58.367Z,44.90
2023-05-10T18:26:03.187Z,45.14
2023-05-10T18:29:13.836Z,45.00
2023-05-10T18:32:27.749Z,44.73
2023-05-10T18:35:45.569Z,44.39
2023-05-10T18:38:52.433Z,44.44
2023-05-10T18:42:02.452Z,44.61
2023-05-10T18:45:15.530Z,44.54
2023-05-10T18:48:22.331Z,44.54
2023-05-10T18:51:33.899Z,44.13
2023-05-10T18:54:46.700Z,44.13
2023-05-10T18:57:58.670Z,44.17
2023-05-10T19:01:10.311Z,44.37
2023-05-10T19:04:22.472Z,44.51
2023-05-10T19:07:40.668Z,44.54
2023-05-10T19:10:51.561Z,44.37
2023-05-10T19:14:00.478Z,44.57
2023-05-10T19:17:41.112Z,44.57
2023-05-10T19:20:56.206Z,44.38
2023-05-10T19:24:06.916Z,44.19
2023-05-10T19:27:20.034Z,44.13
2023-05-10T19:30:36.107Z,44.02
2023-05-10T19:33:47.162Z,44.31
2023-05-10T19:37:03.036Z,44.58
2023-05-10T19:40:13.688Z,44.64
2023-05-10T19:43:22.106Z,44.74
2023-05-10T19:46:35.082Z,44.87
2023-05-10T19:49:39.906Z,44.98
2023-05-10T19:53:03.053Z,45.26
2023-05-10T19:56:21.449Z,45.20
2023-05-10T19:59:55.914Z,45.74
2023-05-10T20:03:20.008Z,45.55
2023-05-10T20:07:00.216Z,45.88
2023-05-10T20:10:21.915Z,46.18
2023-05-10T20:13:51.165Z,46.58
2023-05-10T20:17:16.575Z,46.48
2023-05-10T20:21:02.238Z,46.45
2023-05-10T20:24:34.921Z,46.73
2023-05-10T20:27:53.698Z,46.41
2023-05-10T20:31:07.720Z,46.54
2023-05-10T20:34:23.407Z,46.21
2023-05-10T20:37:38.390Z,46.65
2023-05-10T20:41:01.626Z,46.33
2023-05-10T20:44:54.117Z,46.36
2023-05-10T20:51:47.369Z,46.00
2023-05-10T20:58:27.697Z,45.99
2023-05-10T21:02:06.309Z,46.02
2023-05-10T21:05:27.002Z,46.28
2023-05-10T21:08:46.306Z,46.34
2023-05-10T21:12:50.845Z,46.45
2023-05-10T21:16:19.759Z,46.35
2023-05-10T21:20:15.422Z,46.91
2023-05-10T21:23:38.565Z,46.46
2023-05-10T21:27:15.295Z,46.14
2023-05-10T21:40:10.189Z,46.70
2023-05-10T22:11:06.895Z,46.43
2023-05-10T22:14:59.508Z,46.34
2023-05-10T22:18:16.296Z,45.92
2023-05-10T22:21:34.775Z,46.26
2023-05-10T22:24:47.089Z,45.99
2023-05-10T22:31:17.330Z,46.24
2023-05-10T22:34:24.034Z,46.09
2023-05-10T22:37:30.673Z,46.60
2023-05-10T22:40:43.079Z,46.68
2023-05-10T22:43:54.860Z,46.41
2023-05-10T22:47:14.603Z,46.53
2023-05-10T22:50:40.071Z,46.44
2023-05-10T22:54:19.698Z,46.81
2023-05-10T22:57:29.938Z,47.36
2023-05-10T23:01:04.881Z,47.19
2023-05-10T23:04:25.055Z,47.52
2023-05-10T23:07:59.202Z,47.97
2023-05-10T23:11:26.760Z,48.51
2023-05-10T23:14:59.478Z,48.79
2023-05-10T23:18:44.011Z,49.05
2023-05-10T23:22:19.716Z,48.98
2023-05-10T23:25:50.651Z,49.05
2023-05-10T23:29:17.238Z,48.93
2023-05-10T23:32:42.444Z,48.98
2023-05-10T23:36:28.805Z,48.79
2023-05-10T23:39:46.712Z,49.00
2023-05-10T23:43:05.526Z,49.29
2023-05-10T23:46:25.635Z,49.27
2023-05-10T23:49:51.976Z,49.19
2023-05-10T23:53:02.040Z,49.03
2023-05-10T23:56:11.536Z,48.78
2023-05-10T23:59:15.116Z,49.47
